createdAt,value
2019-01-25T00:00:22.029Z,34.63
2019-01-25T00:01:25.510Z,33.67
2019-01-25T00:02:29.329Z,36.25
2019-01-25T00:03:32.910Z,34.18
2019-01-25T00:04:36.462Z,33.00
2019-01-25T00:05:39.942Z,34.20
2019-01-25T00:06:43.506Z,33.58
2019-01-25T00:07:47.067Z,32.65
2019-01-25T00:08:50.646Z,33.18
2019-01-25T00:09:58.587Z,34.83
2019-01-25T00:10:59.390Z,31.73
2019-01-25T00:12:02.872Z,34.03
2019-01-25T00:13:06.549Z,32.88
2019-01-25T00:14:10.126Z,34.45
2019-01-25T00:15:14.243Z,31.50
2019-01-25T00:16:17.790Z,32.45
2019-01-25T00:17:21.262Z,34.33
2019-01-25T00:18:24.846Z,34.48
2019-01-25T00:19:28.321Z,34.70
2019-01-25T00:20:31.941Z,32.28
2019-01-25T00:21:35.414Z,33.73
2019-01-25T00:22:38.967Z,32.75
2019-01-25T00:23:42.554Z,34.67
2019-01-25T00:24:46.031Z,33.23
2019-01-25T00:25:49.582Z,35.35
2019-01-25T00:26:53.129Z,35.23
2019-01-25T00:27:56.686Z,34.40
2019-01-25T00:29:00.266Z,35.00
2019-01-25T00:30:05.418Z,32.95
2019-01-25T00:31:08.890Z,34.98
2019-01-25T00:32:12.369Z,35.33
2019-01-25T00:33:15.958Z,33.63
2019-01-25T00:34:19.506Z,32.80
2019-01-25T00:35:23.013Z,34.08
2019-01-25T00:36:26.533Z,32.75
2019-01-25T00:37:30.134Z,35.15
2019-01-25T00:38:33.634Z,31.60
2019-01-25T00:39:37.149Z,33.10
2019-01-25T00:40:42.040Z,32.35
2019-01-25T00:41:45.678Z,33.95
2019-01-25T00:42:49.371Z,33.10
2019-01-25T00:43:52.941Z,35.88
2019-01-25T00:44:56.517Z,34.05
2019-01-25T00:45:59.998Z,33.25
2019-01-25T00:47:03.550Z,33.25
2019-01-25T00:48:07.162Z,32.73
2019-01-25T00:49:10.743Z,33.53
2019-01-25T00:50:21.957Z,34.63
2019-01-25T00:51:25.426Z,33.25
2019-01-25T00:52:28.898Z,34.10
2019-01-25T00:53:32.414Z,32.15
2019-01-25T00:54:35.961Z,33.58
2019-01-25T00:55:39.434Z,33.55
2019-01-25T00:56:42.910Z,32.08
2019-01-25T00:57:46.697Z,32.67
2019-01-25T00:58:50.299Z,35.13
2019-01-25T00:59:53.858Z,34.23
2019-01-25T01:00:57.477Z,32.75
2019-01-25T01:02:01.025Z,34.67
2019-01-25T01:03:06.401Z,30.95
2019-01-25T01:04:09.981Z,32.63
2019-01-25T01:05:14.169Z,33.15
2019-01-25T01:06:17.714Z,35.17
2019-01-25T01:07:21.298Z,33.60
2019-01-25T01:08:24.918Z,31.48
2019-01-25T01:09:28.474Z,32.23
2019-01-25T01:10:32.046Z,29.70
2019-01-25T01:11:35.524Z,33.98
2019-01-25T01:12:39.506Z,32.63
2019-01-25T01:13:43.152Z,31.40
2019-01-25T01:14:46.698Z,30.92
2019-01-25T01:15:50.202Z,33.15
2019-01-25T01:16:53.791Z,32.58
2019-01-25T01:17:57.330Z,32.65
2019-01-25T01:19:00.802Z,32.45
2019-01-25T01:20:07.754Z,35.50
2019-01-25T01:21:11.258Z,31.30
2019-01-25T01:22:14.730Z,32.78
2019-01-25T01:23:18.283Z,31.97
2019-01-25T01:24:21.835Z,31.45
2019-01-25T01:25:25.422Z,33.00
2019-01-25T01:26:28.979Z,32.67
2019-01-25T01:27:32.527Z,30.97
2019-01-25T01:28:36.075Z,32.10
2019-01-25T01:29:39.649Z,30.45
2019-01-25T01:30:43.126Z,32.75
2019-01-25T01:31:46.675Z,34.15
2019-01-25T01:32:50.582Z,31.90
2019-01-25T01:33:54.170Z,33.02
2019-01-25T01:34:57.682Z,33.83
2019-01-25T01:36:01.158Z,32.38
2019-01-25T01:37:04.973Z,31.45
2019-01-25T01:38:08.454Z,33.58
2019-01-25T01:39:12.029Z,32.90
2019-01-25T01:40:22.169Z,33.40
2019-01-25T01:41:25.909Z,31.93
2019-01-25T01:42:29.382Z,32.00
2019-01-25T01:43:32.930Z,34.08
2019-01-25T01:44:36.428Z,33.13
2019-01-25T01:45:39.973Z,31.62
2019-01-25T01:46:43.503Z,33.63
2019-01-25T01:47:47.122Z,34.03
2019-01-25T01:48:50.594Z,33.48
2019-01-25T01:49:54.070Z,33.50
2019-01-25T01:50:57.541Z,33.80
2019-01-25T01:52:01.045Z,34.00
2019-01-25T01:53:04.865Z,35.00
2019-01-25T01:54:09.326Z,31.55
2019-01-25T01:55:12.947Z,32.50
2019-01-25T01:56:16.529Z,31.65
2019-01-25T01:57:20.073Z,31.65
2019-01-25T01:58:23.546Z,32.33
2019-01-25T01:59:27.026Z,33.58
2019-01-25T02:00:30.882Z,29.52
2019-01-25T02:01:34.425Z,30.05
2019-01-25T02:02:37.915Z,32.45
2019-01-25T02:03:41.466Z,35.48
2019-01-25T02:04:45.015Z,34.83
2019-01-25T02:05:48.695Z,32.10
2019-01-25T02:06:52.351Z,33.35
2019-01-25T02:07:56.039Z,32.65
2019-01-25T02:08:59.623Z,33.53
2019-01-25T02:10:04.911Z,33.73
2019-01-25T02:11:08.458Z,32.20
2019-01-25T02:12:12.007Z,32.70
2019-01-25T02:13:15.554Z,31.30
2019-01-25T02:14:19.060Z,33.60
2019-01-25T02:15:23.458Z,33.70
2019-01-25T02:16:27.001Z,32.40
2019-01-25T02:17:30.478Z,32.05
2019-01-25T02:18:33.949Z,33.53
2019-01-25T02:19:37.458Z,33.88
2019-01-25T02:20:40.925Z,33.05
2019-01-25T02:21:44.478Z,31.77
2019-01-25T02:22:48.031Z,35.15
2019-01-25T02:23:51.617Z,33.23
2019-01-25T02:24:55.201Z,34.20
2019-01-25T02:25:58.749Z,33.90
2019-01-25T02:27:02.294Z,34.20
2019-01-25T02:28:05.795Z,33.70
2019-01-25T02:29:09.447Z,31.70
2019-01-25T02:30:18.595Z,32.78
2019-01-25T02:31:22.207Z,30.92
2019-01-25T02:32:25.757Z,30.77
2019-01-25T02:33:29.343Z,31.70
2019-01-25T02:34:32.898Z,32.35
2019-01-25T02:35:36.515Z,31.60
2019-01-25T02:36:40.066Z,33.80
2019-01-25T02:37:43.655Z,31.95
2019-01-25T02:38:47.233Z,31.15
2019-01-25T02:39:50.778Z,34.05
2019-01-25T02:40:54.255Z,33.50
2019-01-25T02:41:57.810Z,31.35
2019-01-25T02:43:01.395Z,33.80
2019-01-25T02:44:05.415Z,32.20
2019-01-25T02:45:11.201Z,33.28
2019-01-25T02:46:14.675Z,32.80
2019-01-25T02:47:18.150Z,32.58
2019-01-25T02:48:21.733Z,33.78
2019-01-25T02:49:25.206Z,30.77
2019-01-25T02:50:28.754Z,31.42
2019-01-25T02:51:32.264Z,32.83
2019-01-25T02:52:35.810Z,31.35
2019-01-25T02:53:39.281Z,30.97
2019-01-25T02:54:42.749Z,35.20
2019-01-25T02:55:46.272Z,32.00
2019-01-25T02:56:49.820Z,33.90
2019-01-25T02:57:53.376Z,33.20
2019-01-25T02:58:56.914Z,32.73
2019-01-25T03:00:00.463Z,33.90
2019-01-25T03:01:04.533Z,32.63
2019-01-25T03:02:08.078Z,32.35
2019-01-25T03:03:11.556Z,34.75
2019-01-25T03:04:15.107Z,33.67
2019-01-25T03:05:20.194Z,33.75
2019-01-25T03:06:23.780Z,31.45
2019-01-25T03:07:27.366Z,32.17
2019-01-25T03:08:31.027Z,32.03
2019-01-25T03:09:34.573Z,33.20
2019-01-25T03:10:38.114Z,31.10
2019-01-25T03:11:41.674Z,34.80
2019-01-25T03:12:45.587Z,30.57
2019-01-25T03:13:49.186Z,31.55
2019-01-25T03:14:52.766Z,32.50
2019-01-25T03:15:56.310Z,32.25
2019-01-25T03:16:59.787Z,34.45
2019-01-25T03:18:03.335Z,34.48
2019-01-25T03:19:06.811Z,32.20
2019-01-25T03:20:13.050Z,33.02
2019-01-25T03:21:16.601Z,32.75
2019-01-25T03:22:20.154Z,31.80
2019-01-25T03:23:23.697Z,33.05
2019-01-25T03:24:27.219Z,31.60
2019-01-25T03:25:30.772Z,31.33
2019-01-25T03:26:34.324Z,32.93
2019-01-25T03:27:37.870Z,33.55
2019-01-25T03:28:41.342Z,32.60
2019-01-25T03:29:44.859Z,34.95
2019-01-25T03:30:48.422Z,31.48
2019-01-25T03:31:51.963Z,33.73
2019-01-25T03:32:55.507Z,29.20
2019-01-25T03:33:59.061Z,32.30
2019-01-25T03:35:02.735Z,29.60
2019-01-25T03:36:06.272Z,30.75
2019-01-25T03:37:09.821Z,31.80
2019-01-25T03:38:13.293Z,32.70
2019-01-25T03:39:16.766Z,30.75
2019-01-25T03:40:22.634Z,31.57
2019-01-25T03:41:26.250Z,31.65
2019-01-25T03:42:29.727Z,31.23
2019-01-25T03:43:33.273Z,32.00
2019-01-25T03:44:36.818Z,31.45
2019-01-25T03:45:40.328Z,32.58
2019-01-25T03:46:43.875Z,30.90
2019-01-25T03:47:47.563Z,32.95
2019-01-25T03:48:51.142Z,32.00
2019-01-25T03:49:54.691Z,31.73
2019-01-25T03:50:58.242Z,31.17
2019-01-25T03:52:01.794Z,31.57
2019-01-25T03:53:05.306Z,32.65
2019-01-25T03:54:08.854Z,33.28
2019-01-25T03:55:13.886Z,34.27
2019-01-25T03:56:17.371Z,33.80
2019-01-25T03:57:20.923Z,34.70
2019-01-25T03:58:24.470Z,32.23
2019-01-25T03:59:27.945Z,32.25
2019-01-25T04:00:31.619Z,33.33
2019-01-25T04:01:35.165Z,33.65
2019-01-25T04:02:38.716Z,32.28
2019-01-25T04:03:42.262Z,32.50
2019-01-25T04:04:45.741Z,30.90
2019-01-25T04:05:49.417Z,31.75
2019-01-25T04:06:52.961Z,32.03
2019-01-25T04:07:56.524Z,32.75
2019-01-25T04:09:00.066Z,31.68
2019-01-25T04:10:04.777Z,31.93
2019-01-25T04:11:08.327Z,33.20
2019-01-25T04:12:11.879Z,31.52
2019-01-25T04:13:15.433Z,32.05
2019-01-25T04:14:18.981Z,31.80
2019-01-25T04:15:25.023Z,31.93
2019-01-25T04:16:28.559Z,29.87
2019-01-25T04:17:32.110Z,30.68
2019-01-25T04:18:35.838Z,31.25
2019-01-25T04:19:39.311Z,33.15
2019-01-25T04:20:42.833Z,31.07
2019-01-25T04:21:46.385Z,31.27
2019-01-25T04:22:50.006Z,29.98
2019-01-25T04:23:53.550Z,32.40
2019-01-25T04:24:57.022Z,30.08
2019-01-25T04:26:00.534Z,29.52
2019-01-25T04:27:04.135Z,31.68
2019-01-25T04:28:07.611Z,27.55
2019-01-25T04:29:11.166Z,30.32
2019-01-25T04:30:17.759Z,30.68
2019-01-25T04:31:21.302Z,28.85
2019-01-25T04:32:24.816Z,30.27
2019-01-25T04:33:28.362Z,28.45
2019-01-25T04:34:31.838Z,29.95
2019-01-25T04:35:35.667Z,28.70
2019-01-25T04:36:39.250Z,31.23
2019-01-25T04:37:42.727Z,31.12
2019-01-25T04:38:46.275Z,30.32
2019-01-25T04:39:49.843Z,30.55
2019-01-25T04:40:53.445Z,31.37
2019-01-25T04:41:56.975Z,30.70
2019-01-25T04:43:00.521Z,32.42
2019-01-25T04:44:04.446Z,32.25
2019-01-25T04:45:13.660Z,33.63
2019-01-25T04:46:17.264Z,32.83
2019-01-25T04:47:22.475Z,35.28
2019-01-25T04:48:26.022Z,31.30
2019-01-25T04:49:34.115Z,29.30
2019-01-25T04:50:37.663Z,29.10
2019-01-25T04:51:41.338Z,29.32
2019-01-25T04:52:44.924Z,27.95
2019-01-25T04:53:48.470Z,29.20
2019-01-25T04:54:52.021Z,30.27
2019-01-25T04:55:55.563Z,27.95
2019-01-25T04:56:59.082Z,29.05
2019-01-25T04:58:10.650Z,30.68
2019-01-25T04:59:14.125Z,30.68
2019-01-25T05:00:23.069Z,29.30
2019-01-25T05:01:26.613Z,27.80
2019-01-25T05:02:30.195Z,28.98
2019-01-25T05:03:33.778Z,27.73
2019-01-25T05:04:37.250Z,27.85
2019-01-25T05:05:40.866Z,29.05
2019-01-25T05:06:44.346Z,28.75
2019-01-25T05:07:47.931Z,27.30
2019-01-25T05:08:51.402Z,26.77
2019-01-25T05:09:54.875Z,26.20
2019-01-25T05:10:58.426Z,29.02
2019-01-25T05:12:01.966Z,26.10
2019-01-25T05:13:05.794Z,27.77
2019-01-25T05:14:09.263Z,27.25
2019-01-25T05:15:12.855Z,26.07
2019-01-25T05:16:16.542Z,29.92
2019-01-25T05:17:20.115Z,26.42
2019-01-25T05:18:23.594Z,27.90
2019-01-25T05:19:27.141Z,26.42
2019-01-25T05:20:30.734Z,27.95
2019-01-25T05:21:34.288Z,27.17
2019-01-25T05:22:37.834Z,28.15
2019-01-25T05:23:41.381Z,28.35
2019-01-25T05:24:44.859Z,25.88
2019-01-25T05:25:48.445Z,27.27
2019-01-25T05:26:55.242Z,26.97
2019-01-25T05:28:03.474Z,26.30
2019-01-25T05:29:07.015Z,26.30
2019-01-25T05:30:12.994Z,26.30
2019-01-25T05:31:16.474Z,27.37
2019-01-25T05:32:20.091Z,27.42
2019-01-25T05:33:23.613Z,27.80
2019-01-25T05:34:27.158Z,25.95
2019-01-25T05:35:35.882Z,27.30
2019-01-25T05:36:39.430Z,27.35
2019-01-25T05:37:43.051Z,26.48
2019-01-25T05:38:46.822Z,25.75
2019-01-25T05:39:50.366Z,25.10
2019-01-25T05:40:53.844Z,26.23
2019-01-25T05:41:57.397Z,26.57
2019-01-25T05:43:00.945Z,24.40
2019-01-25T05:44:04.454Z,26.85
2019-01-25T05:45:13.563Z,26.60
2019-01-25T05:46:17.112Z,27.17
2019-01-25T05:47:20.655Z,26.95
2019-01-25T05:48:27.278Z,26.37
2019-01-25T05:49:30.869Z,28.32
2019-01-25T05:50:34.494Z,27.62
2019-01-25T05:51:38.042Z,26.65
2019-01-25T05:52:41.514Z,26.52
2019-01-25T05:53:48.683Z,26.12
2019-01-25T05:54:52.227Z,27.93
2019-01-25T05:55:55.823Z,30.77
2019-01-25T05:56:59.373Z,26.93
2019-01-25T05:58:06.334Z,26.95
2019-01-25T05:59:09.810Z,27.40
2019-01-25T06:00:15.746Z,28.20
2019-01-25T06:01:19.334Z,27.42
2019-01-25T06:02:22.889Z,27.85
2019-01-25T06:03:26.434Z,26.87
2019-01-25T06:04:38.463Z,25.57
2019-01-25T06:05:42.351Z,26.50
2019-01-25T06:06:45.938Z,26.10
2019-01-25T06:07:49.449Z,26.93
2019-01-25T06:08:52.927Z,25.55
2019-01-25T06:09:56.503Z,26.05
2019-01-25T06:11:02.567Z,27.15
2019-01-25T06:12:06.224Z,27.02
2019-01-25T06:13:09.859Z,26.15
2019-01-25T06:14:14.993Z,27.90
2019-01-25T06:15:18.548Z,27.20
2019-01-25T06:16:22.127Z,25.97
2019-01-25T06:17:25.677Z,26.85
2019-01-25T06:18:29.370Z,28.40
2019-01-25T06:19:37.074Z,26.20
2019-01-25T06:20:40.919Z,27.90
2019-01-25T06:21:44.462Z,24.67
2019-01-25T06:22:48.114Z,27.62
2019-01-25T06:23:54.218Z,26.87
2019-01-25T06:24:57.690Z,25.92
2019-01-25T06:26:01.352Z,25.00
2019-01-25T06:27:05.297Z,23.85
2019-01-25T06:28:08.770Z,25.48
2019-01-25T06:29:12.310Z,26.90
2019-01-25T06:30:16.923Z,25.45
2019-01-25T06:31:20.964Z,24.23
2019-01-25T06:32:26.446Z,26.00
2019-01-25T06:33:30.451Z,24.95
2019-01-25T06:34:33.982Z,25.15
2019-01-25T06:35:37.530Z,23.40
2019-01-25T06:36:41.078Z,24.35
2019-01-25T06:37:44.649Z,21.90
2019-01-25T06:38:48.121Z,23.35
2019-01-25T06:39:51.630Z,23.70
2019-01-25T06:40:55.114Z,26.40
2019-01-25T06:41:58.689Z,26.50
2019-01-25T06:43:02.233Z,25.00
2019-01-25T06:44:05.849Z,25.92
2019-01-25T06:45:12.687Z,24.32
2019-01-25T06:46:16.307Z,25.30
2019-01-25T06:47:19.856Z,24.98
2019-01-25T06:48:23.475Z,24.30
2019-01-25T06:49:27.082Z,26.90
2019-01-25T06:50:30.557Z,24.52
2019-01-25T06:51:34.033Z,25.80
2019-01-25T06:52:37.502Z,24.67
2019-01-25T06:53:40.982Z,27.45
2019-01-25T06:54:44.491Z,26.02
2019-01-25T06:55:48.041Z,24.75
2019-01-25T06:56:51.518Z,25.60
2019-01-25T06:57:59.333Z,25.52
2019-01-25T06:59:04.574Z,24.57
2019-01-25T07:00:11.203Z,25.90
2019-01-25T07:01:19.393Z,25.27
2019-01-25T07:02:23.610Z,23.75
2019-01-25T07:03:27.085Z,25.40
2019-01-25T07:04:30.594Z,27.10
2019-01-25T07:05:34.142Z,26.07
2019-01-25T07:06:37.622Z,26.50
2019-01-25T07:07:41.938Z,26.85
2019-01-25T07:08:46.185Z,26.77
2019-01-25T07:09:49.774Z,26.52
2019-01-25T07:10:53.246Z,27.35
2019-01-25T07:11:56.755Z,27.17
2019-01-25T07:13:00.311Z,27.73
2019-01-25T07:14:03.927Z,23.60
2019-01-25T07:15:10.020Z,25.80
2019-01-25T07:16:13.605Z,23.62
2019-01-25T07:17:18.788Z,27.70
2019-01-25T07:18:22.342Z,24.37
2019-01-25T07:19:25.901Z,26.23
2019-01-25T07:20:29.447Z,24.95
2019-01-25T07:21:33.038Z,23.67
2019-01-25T07:22:36.586Z,27.52
2019-01-25T07:23:40.053Z,26.70
2019-01-25T07:24:43.601Z,27.42
2019-01-25T07:25:47.106Z,26.97
2019-01-25T07:26:50.586Z,26.62
2019-01-25T07:27:54.132Z,27.37
2019-01-25T07:28:57.686Z,26.65
2019-01-25T07:30:01.262Z,26.27
2019-01-25T07:31:04.975Z,27.02
2019-01-25T07:32:08.654Z,25.55
2019-01-25T07:33:12.163Z,25.90
2019-01-25T07:34:15.719Z,26.35
2019-01-25T07:35:19.285Z,26.60
2019-01-25T07:36:22.918Z,25.70
2019-01-25T07:37:26.467Z,24.27
2019-01-25T07:38:30.011Z,25.45
2019-01-25T07:39:33.563Z,23.42
2019-01-25T07:40:37.152Z,27.58
2019-01-25T07:41:40.699Z,26.82
2019-01-25T07:42:44.242Z,23.83
2019-01-25T07:43:47.803Z,23.70
2019-01-25T07:44:51.369Z,25.50
2019-01-25T07:45:54.934Z,25.05
2019-01-25T07:46:58.522Z,26.35
2019-01-25T07:48:02.001Z,27.07
2019-01-25T07:49:05.546Z,27.73
2019-01-25T07:50:11.427Z,27.62
2019-01-25T07:51:15.025Z,26.15
2019-01-25T07:52:18.597Z,26.30
2019-01-25T07:53:22.425Z,27.32
2019-01-25T07:54:26.015Z,27.42
2019-01-25T07:55:29.591Z,29.18
2019-01-25T07:56:33.143Z,26.80
2019-01-25T07:57:36.712Z,28.50
2019-01-25T07:58:40.235Z,29.87
2019-01-25T07:59:43.797Z,29.32
2019-01-25T08:00:47.370Z,31.07
2019-01-25T08:01:51.027Z,28.92
2019-01-25T08:02:54.581Z,27.15
2019-01-25T08:03:58.160Z,28.73
2019-01-25T08:05:01.683Z,26.45
2019-01-25T08:06:05.267Z,27.73
2019-01-25T08:07:08.818Z,26.60
2019-01-25T08:08:12.375Z,30.08
2019-01-25T08:09:15.926Z,30.05
2019-01-25T08:10:22.151Z,26.02
2019-01-25T08:11:25.688Z,25.43
2019-01-25T08:12:29.235Z,25.90
2019-01-25T08:13:32.782Z,26.27
2019-01-25T08:14:36.339Z,27.80
2019-01-25T08:15:41.650Z,28.98
2019-01-25T08:16:45.173Z,27.22
2019-01-25T08:17:48.770Z,24.87
2019-01-25T08:18:52.277Z,26.15
2019-01-25T08:19:55.851Z,27.48
2019-01-25T08:20:59.419Z,27.27
2019-01-25T08:22:02.967Z,26.45
2019-01-25T08:23:06.526Z,26.87
2019-01-25T08:24:10.075Z,26.15
2019-01-25T08:25:14.168Z,23.42
2019-01-25T08:26:17.711Z,24.57
2019-01-25T08:27:21.307Z,23.30
2019-01-25T08:28:24.868Z,25.02
2019-01-25T08:29:28.478Z,26.75
2019-01-25T08:30:31.950Z,25.37
2019-01-25T08:31:35.607Z,24.85
2019-01-25T08:32:39.191Z,23.87
2019-01-25T08:33:42.754Z,27.15
2019-01-25T08:34:46.316Z,23.07
2019-01-25T08:35:49.847Z,19.60
2019-01-25T08:36:53.398Z,19.20
2019-01-25T08:37:56.982Z,25.25
2019-01-25T08:39:00.560Z,25.40
2019-01-25T08:40:07.234Z,24.82
2019-01-25T08:41:10.785Z,26.40
2019-01-25T08:42:15.563Z,26.35
2019-01-25T08:43:19.552Z,25.72
2019-01-25T08:44:23.133Z,24.57
2019-01-25T08:45:26.704Z,24.47
2019-01-25T08:46:30.227Z,25.70
2019-01-25T08:47:33.784Z,26.95
2019-01-25T08:48:37.335Z,25.17
2019-01-25T08:49:40.918Z,23.92
2019-01-25T08:50:44.491Z,24.02
2019-01-25T08:51:48.021Z,24.20
2019-01-25T08:52:51.558Z,23.77
2019-01-25T08:53:55.067Z,22.15
2019-01-25T08:54:58.669Z,25.88
2019-01-25T08:56:02.235Z,23.00
2019-01-25T08:57:05.827Z,25.40
2019-01-25T08:58:09.415Z,23.65
2019-01-25T08:59:13.002Z,24.95
2019-01-25T09:00:19.265Z,25.17
2019-01-25T09:01:22.737Z,22.82
2019-01-25T09:02:26.206Z,23.62
2019-01-25T09:03:29.786Z,23.02
2019-01-25T09:04:33.347Z,25.00
2019-01-25T09:05:36.927Z,21.20
2019-01-25T09:06:40.399Z,23.02
2019-01-25T09:07:43.953Z,23.10
2019-01-25T09:08:47.609Z,23.42
2019-01-25T09:09:51.150Z,24.47
2019-01-25T09:10:54.662Z,24.98
2019-01-25T09:11:58.208Z,23.10
2019-01-25T09:13:01.753Z,25.95
2019-01-25T09:14:05.226Z,24.47
2019-01-25T09:15:14.462Z,24.67
2019-01-25T09:16:18.128Z,22.70
2019-01-25T09:17:21.677Z,22.45
2019-01-25T09:18:25.268Z,22.40
2019-01-25T09:19:28.817Z,22.87
2019-01-25T09:20:32.363Z,24.45
2019-01-25T09:21:35.913Z,24.23
2019-01-25T09:22:39.389Z,22.95
2019-01-25T09:23:42.898Z,23.55
2019-01-25T09:24:46.406Z,23.60
2019-01-25T09:25:49.962Z,23.42
2019-01-25T09:26:53.505Z,24.20
2019-01-25T09:27:56.974Z,23.65
2019-01-25T09:29:00.483Z,21.85
2019-01-25T09:30:05.878Z,23.10
2019-01-25T09:31:09.442Z,22.48
2019-01-25T09:32:13.126Z,23.07
2019-01-25T09:33:16.602Z,17.57
2019-01-25T09:34:20.122Z,22.52
2019-01-25T09:35:23.937Z,21.17
2019-01-25T09:36:27.491Z,20.27
2019-01-25T09:37:31.033Z,20.62
2019-01-25T09:38:34.514Z,21.90
2019-01-25T09:39:38.022Z,21.07
2019-01-25T09:40:41.601Z,20.65
2019-01-25T09:41:45.111Z,19.23
2019-01-25T09:42:48.668Z,21.65
2019-01-25T09:43:52.254Z,18.55
2019-01-25T09:44:55.838Z,20.15
2019-01-25T09:45:59.310Z,20.95
2019-01-25T09:47:02.794Z,17.90
2019-01-25T09:48:06.379Z,17.65
2019-01-25T09:49:09.935Z,17.82
2019-01-25T09:50:16.490Z,15.65
2019-01-25T09:51:20.046Z,16.70
2019-01-25T09:52:23.634Z,17.95
2019-01-25T09:53:27.250Z,18.42
2019-01-25T09:54:30.804Z,18.27
2019-01-25T09:55:34.382Z,17.75
2019-01-25T09:56:37.890Z,17.32
2019-01-25T09:57:41.366Z,17.70
2019-01-25T09:58:44.943Z,17.42
2019-01-25T09:59:48.498Z,17.65
2019-01-25T10:00:58.419Z,17.77
2019-01-25T10:02:01.966Z,18.70
2019-01-25T10:03:05.446Z,17.23
2019-01-25T10:04:09.021Z,16.02
2019-01-25T10:05:12.572Z,16.30
2019-01-25T10:06:16.118Z,16.97
2019-01-25T10:07:19.661Z,17.02
2019-01-25T10:08:23.135Z,17.15
2019-01-25T10:09:26.727Z,16.85
2019-01-25T10:10:30.282Z,16.48
2019-01-25T10:11:33.835Z,15.32
2019-01-25T10:12:43.256Z,18.15
2019-01-25T10:13:42.626Z,17.25
2019-01-25T10:14:46.190Z,16.27
2019-01-25T10:15:49.667Z,16.93
2019-01-25T10:16:53.210Z,12.95
2019-01-25T10:17:56.794Z,16.12
2019-01-25T10:19:00.343Z,16.82
2019-01-25T10:20:07.143Z,14.70
2019-01-25T10:21:10.696Z,16.00
2019-01-25T10:22:14.246Z,16.87
2019-01-25T10:23:17.834Z,16.40
2019-01-25T10:24:21.333Z,16.30
2019-01-25T10:25:24.927Z,15.70
2019-01-25T10:26:28.397Z,17.15
2019-01-25T10:27:31.869Z,15.43
2019-01-25T10:28:35.346Z,16.48
2019-01-25T10:29:38.823Z,15.63
2019-01-25T10:30:42.410Z,14.90
2019-01-25T10:31:45.970Z,15.50
2019-01-25T10:32:49.479Z,16.25
2019-01-25T10:33:53.043Z,16.12
2019-01-25T10:34:56.585Z,15.98
2019-01-25T10:36:00.179Z,17.40
2019-01-25T10:37:03.729Z,16.45
2019-01-25T10:38:07.271Z,18.07
2019-01-25T10:39:10.814Z,15.35
2019-01-25T10:40:16.805Z,18.85
2019-01-25T10:41:20.391Z,19.02
2019-01-25T10:42:23.943Z,17.73
2019-01-25T10:43:27.494Z,15.28
2019-01-25T10:44:30.969Z,14.20
2019-01-25T10:45:40.040Z,17.50
2019-01-25T10:46:43.642Z,16.37
2019-01-25T10:47:47.115Z,15.75
2019-01-25T10:48:50.587Z,15.95
2019-01-25T10:49:54.134Z,15.03
2019-01-25T10:50:57.609Z,16.65
2019-01-25T10:52:01.189Z,14.45
2019-01-25T10:53:06.211Z,16.75
2019-01-25T10:54:09.754Z,18.87
2019-01-25T10:55:14.546Z,14.93
2019-01-25T10:56:18.021Z,17.85
2019-01-25T10:57:21.670Z,16.60
2019-01-25T10:58:25.218Z,15.95
2019-01-25T10:59:28.699Z,15.40
2019-01-25T11:00:32.286Z,15.45
2019-01-25T11:01:35.762Z,14.58
2019-01-25T11:02:39.341Z,14.95
2019-01-25T11:03:42.822Z,14.60
2019-01-25T11:04:46.294Z,15.93
2019-01-25T11:05:49.966Z,16.12
2019-01-25T11:06:53.446Z,14.45
2019-01-25T11:07:56.995Z,15.95
2019-01-25T11:09:00.579Z,15.40
2019-01-25T11:10:05.494Z,16.97
2019-01-25T11:11:09.046Z,16.23
2019-01-25T11:12:12.616Z,16.35
2019-01-25T11:13:16.142Z,15.30
2019-01-25T11:14:19.717Z,14.95
2019-01-25T11:15:24.817Z,16.10
2019-01-25T11:16:28.394Z,15.53
2019-01-25T11:17:36.372Z,15.35
2019-01-25T11:18:37.182Z,17.00
2019-01-25T11:19:40.654Z,17.05
2019-01-25T11:20:44.161Z,16.15
2019-01-25T11:21:47.635Z,16.30
2019-01-25T11:22:51.322Z,17.27
2019-01-25T11:23:54.838Z,17.27
2019-01-25T11:24:58.391Z,15.25
2019-01-25T11:26:01.935Z,15.10
2019-01-25T11:27:05.492Z,16.25
2019-01-25T11:28:09.112Z,16.75
2019-01-25T11:29:12.690Z,16.82
2019-01-25T11:30:17.311Z,15.20
2019-01-25T11:31:20.859Z,16.80
2019-01-25T11:32:24.369Z,17.30
2019-01-25T11:33:27.850Z,18.30
2019-01-25T11:34:33.098Z,17.82
2019-01-25T11:35:36.778Z,15.15
2019-01-25T11:36:40.362Z,16.50
2019-01-25T11:37:43.906Z,15.90
2019-01-25T11:38:47.379Z,18.10
2019-01-25T11:39:50.862Z,17.45
2019-01-25T11:40:54.450Z,16.80
2019-01-25T11:41:57.926Z,16.73
2019-01-25T11:43:08.196Z,16.30
2019-01-25T11:44:06.712Z,14.80
2019-01-25T11:45:11.994Z,16.48
2019-01-25T11:46:15.505Z,18.12
2019-01-25T11:47:19.050Z,17.92
2019-01-25T11:48:22.526Z,17.77
2019-01-25T11:49:26.114Z,17.77
2019-01-25T11:50:29.666Z,17.12
2019-01-25T11:51:33.259Z,17.32
2019-01-25T11:52:36.855Z,17.50
2019-01-25T11:53:40.777Z,18.25
2019-01-25T11:54:44.976Z,17.95
2019-01-25T11:55:49.991Z,15.93
2019-01-25T11:56:53.917Z,16.52
2019-01-25T11:57:58.071Z,15.85
2019-01-25T11:59:02.423Z,14.80
2019-01-25T12:00:23.423Z,17.12
2019-01-25T12:01:27.527Z,10.45
2019-01-25T12:02:31.630Z,14.80
2019-01-25T12:03:35.687Z,14.90
2019-01-25T12:04:39.832Z,14.38
2019-01-25T12:05:44.757Z,16.35
2019-01-25T12:06:48.855Z,13.93
2019-01-25T12:07:53.694Z,13.32
2019-01-25T12:08:57.883Z,12.30
2019-01-25T12:10:03.210Z,14.75
2019-01-25T12:11:07.276Z,12.60
2019-01-25T12:12:11.304Z,15.15
2019-01-25T12:13:16.194Z,15.80
2019-01-25T12:14:20.855Z,15.10
2019-01-25T12:15:24.950Z,14.80
2019-01-25T12:16:30.181Z,14.63
2019-01-25T12:17:34.280Z,12.03
2019-01-25T12:18:38.270Z,17.60
2019-01-25T12:19:42.386Z,13.40
2019-01-25T12:20:46.484Z,14.38
2019-01-25T12:21:50.884Z,14.68
2019-01-25T12:22:55.098Z,11.40
2019-01-25T12:23:59.408Z,11.85
2019-01-25T12:25:04.098Z,15.63
2019-01-25T12:26:08.226Z,10.50
2019-01-25T12:27:12.881Z,13.65
2019-01-25T12:28:16.839Z,14.93
2019-01-25T12:29:20.999Z,16.10
2019-01-25T12:30:37.599Z,14.80
2019-01-25T12:31:38.975Z,12.85
2019-01-25T12:32:42.978Z,13.68
2019-01-25T12:33:47.180Z,14.07
2019-01-25T12:34:51.337Z,16.97
2019-01-25T12:35:55.595Z,17.80
2019-01-25T12:36:59.691Z,16.75
2019-01-25T12:38:03.780Z,16.62
2019-01-25T12:39:08.763Z,14.50
2019-01-25T12:40:15.279Z,15.93
2019-01-25T12:41:19.381Z,15.35
2019-01-25T12:42:24.695Z,18.00
2019-01-25T12:43:28.609Z,15.40
2019-01-25T12:44:32.761Z,16.30
2019-01-25T12:45:37.014Z,16.27
2019-01-25T12:46:40.912Z,15.48
2019-01-25T12:47:45.045Z,17.15
2019-01-25T12:48:49.117Z,16.75
2019-01-25T12:49:53.250Z,17.30
2019-01-25T12:51:02.589Z,17.23
2019-01-25T12:52:08.451Z,16.60
2019-01-25T12:53:12.899Z,15.95
2019-01-25T12:54:16.874Z,15.48
2019-01-25T12:55:20.899Z,12.05
2019-01-25T12:56:25.042Z,16.40
2019-01-25T12:57:29.531Z,16.90
2019-01-25T12:58:33.614Z,16.62
2019-01-25T12:59:37.566Z,17.70
2019-01-25T13:00:42.127Z,15.70
2019-01-25T13:01:45.987Z,16.45
2019-01-25T13:02:50.203Z,16.52
2019-01-25T13:03:54.742Z,16.05
2019-01-25T13:04:58.910Z,13.48
2019-01-25T13:06:03.048Z,11.97
2019-01-25T13:07:07.137Z,14.45
2019-01-25T13:08:11.255Z,13.15
2019-01-25T13:09:15.248Z,14.80
2019-01-25T13:10:21.648Z,14.60
2019-01-25T13:11:25.809Z,16.82
2019-01-25T13:12:29.814Z,15.05
2019-01-25T13:13:33.863Z,14.20
2019-01-25T13:14:37.862Z,12.45
2019-01-25T13:15:41.774Z,14.55
2019-01-25T13:16:45.885Z,12.15
2019-01-25T13:17:49.899Z,14.65
2019-01-25T13:18:53.952Z,14.43
2019-01-25T13:19:58.078Z,16.42
2019-01-25T13:21:02.115Z,16.32
2019-01-25T13:22:06.362Z,16.77
2019-01-25T13:23:10.591Z,14.83
2019-01-25T13:24:14.920Z,14.07
2019-01-25T13:25:19.126Z,14.55
2019-01-25T13:26:23.343Z,9.25
2019-01-25T13:27:27.332Z,15.85
2019-01-25T13:28:31.507Z,12.28
2019-01-25T13:29:35.545Z,14.35
2019-01-25T13:30:39.727Z,12.45
2019-01-25T13:31:43.770Z,14.55
2019-01-25T13:32:47.958Z,13.78
2019-01-25T13:33:52.200Z,15.90
2019-01-25T13:34:56.112Z,14.95
2019-01-25T13:36:00.264Z,10.48
2019-01-25T13:37:04.363Z,12.25
2019-01-25T13:38:08.303Z,14.63
2019-01-25T13:39:12.556Z,10.20
2019-01-25T13:40:21.049Z,12.98
2019-01-25T13:41:27.407Z,8.28
2019-01-25T13:42:30.598Z,16.35
2019-01-25T13:43:38.981Z,13.98